createdAt,value
2024-03-16T00:00:11.443Z,2.53
2024-03-16T00:04:13.770Z,2.08
2024-03-16T00:08:15.620Z,3.63
2024-03-16T00:12:18.202Z,2.97
2024-03-16T00:16:20.467Z,2.85
2024-03-16T00:20:22.291Z,4.18
2024-03-16T00:24:24.094Z,2.45
2024-03-16T00:28:25.814Z,3.70
2024-03-16T00:32:27.783Z,2.47
2024-03-16T00:36:29.539Z,2.53
2024-03-16T00:40:31.216Z,3.17
2024-03-16T00:44:32.927Z,2.78
2024-03-16T00:48:34.712Z,2.53
2024-03-16T00:52:36.475Z,3.13
2024-03-16T00:56:39.694Z,2.97
2024-03-16T01:00:41.622Z,3.13
2024-03-16T01:04:43.282Z,2.90
2024-03-16T01:08:45.090Z,1.70
2024-03-16T01:12:46.964Z,2.55
2024-03-16T01:16:48.880Z,2.65
2024-03-16T01:20:50.645Z,2.13
2024-03-16T01:24:52.509Z,2.28
2024-03-16T01:28:54.247Z,1.90
2024-03-16T01:32:56.087Z,1.60
2024-03-16T01:36:58.206Z,3.22
2024-03-16T01:40:59.955Z,2.75
2024-03-16T01:45:08.086Z,2.60
2024-03-16T01:49:10.305Z,2.67
2024-03-16T01:53:12.756Z,2.33
2024-03-16T01:57:14.598Z,2.50
2024-03-16T02:01:16.765Z,2.53
2024-03-16T02:05:18.514Z,2.47
2024-03-16T02:09:20.830Z,1.55
2024-03-16T02:13:22.605Z,1.80
2024-03-16T02:17:24.609Z,2.00
2024-03-16T02:21:26.631Z,1.83
2024-03-16T02:25:28.525Z,1.85
2024-03-16T02:29:30.319Z,2.08
2024-03-16T02:33:32.728Z,2.15
2024-03-16T02:37:34.525Z,2.30
2024-03-16T02:41:36.276Z,2.30
2024-03-16T02:45:38.136Z,2.10
2024-03-16T02:49:41.708Z,2.10
2024-03-16T02:53:43.427Z,2.20
2024-03-16T02:57:45.353Z,2.88
2024-03-16T03:01:47.220Z,2.40
2024-03-16T03:05:49.069Z,2.10
2024-03-16T03:09:51.126Z,2.05
2024-03-16T03:13:52.936Z,2.30
2024-03-16T03:17:54.915Z,1.90
2024-03-16T03:21:56.858Z,1.80
2024-03-16T03:25:58.834Z,1.88
2024-03-16T03:30:00.849Z,1.60
2024-03-16T03:34:03.339Z,1.60
2024-03-16T03:38:05.322Z,1.65
2024-03-16T03:42:07.110Z,1.50
2024-03-16T03:46:14.638Z,1.70
2024-03-16T03:50:27.505Z,1.40
2024-03-16T03:54:29.253Z,1.63
2024-03-16T03:58:31.128Z,1.85
2024-03-16T04:02:33.012Z,1.52
2024-03-16T04:06:34.692Z,1.70
2024-03-16T04:10:37.131Z,1.70
2024-03-16T04:14:38.909Z,1.80
2024-03-16T04:18:40.895Z,1.90
2024-03-16T04:22:43.030Z,1.80
2024-03-16T04:26:44.909Z,1.60
2024-03-16T04:30:47.044Z,1.70
2024-03-16T04:34:48.996Z,1.73
2024-03-16T04:38:50.730Z,1.83
2024-03-16T04:42:52.546Z,1.42
2024-03-16T04:46:55.945Z,2.00
2024-03-16T04:50:57.790Z,1.70
2024-03-16T04:54:59.711Z,1.90
2024-03-16T04:59:01.830Z,1.70
2024-03-16T05:03:03.974Z,1.70
2024-03-16T05:07:05.974Z,2.45
2024-03-16T05:11:07.929Z,1.95
2024-03-16T05:15:09.973Z,1.60
2024-03-16T05:19:12.056Z,1.60
2024-03-16T05:23:15.376Z,1.65
2024-03-16T05:27:17.523Z,1.30
2024-03-16T05:31:19.499Z,1.20
2024-03-16T05:35:21.450Z,1.10
2024-03-16T05:39:23.622Z,1.00
2024-03-16T05:43:26.107Z,0.90
2024-03-16T05:47:28.192Z,0.98
2024-03-16T05:51:30.843Z,1.00
2024-03-16T05:55:32.669Z,0.93
2024-03-16T05:59:35.386Z,0.80
2024-03-16T06:03:37.743Z,0.95
2024-03-16T06:07:40.052Z,0.90
2024-03-16T06:11:42.232Z,0.90
2024-03-16T06:15:44.321Z,0.80
2024-03-16T06:19:47.072Z,0.82
2024-03-16T06:23:49.887Z,0.70
2024-03-16T06:27:51.753Z,0.80
2024-03-16T06:31:53.627Z,0.80
2024-03-16T06:35:55.487Z,0.80
2024-03-16T06:39:57.281Z,0.80
2024-03-16T06:43:59.008Z,0.70
2024-03-16T06:48:00.936Z,0.77
2024-03-16T06:52:02.846Z,0.70
2024-03-16T06:56:05.487Z,0.70
2024-03-16T07:00:09.878Z,0.60
2024-03-16T07:04:13.804Z,0.70
2024-03-16T07:08:18.518Z,0.65
2024-03-16T07:12:20.915Z,0.70
2024-03-16T07:16:22.794Z,0.70
2024-03-16T07:20:24.834Z,0.63
2024-03-16T07:24:26.610Z,0.65
2024-03-16T07:28:28.369Z,0.60
2024-03-16T07:32:30.116Z,0.70
2024-03-16T07:36:32.148Z,0.70
2024-03-16T07:40:34.134Z,0.70
2024-03-16T07:44:35.783Z,0.60
2024-03-16T07:48:37.623Z,0.65
2024-03-16T07:52:39.903Z,0.60
2024-03-16T07:56:41.632Z,0.60
2024-03-16T08:00:43.467Z,0.50
2024-03-16T08:04:45.285Z,0.60
2024-03-16T08:08:46.991Z,0.60
2024-03-16T08:12:48.982Z,0.50
2024-03-16T08:16:50.982Z,0.60
2024-03-16T08:20:57.497Z,0.60
2024-03-16T08:24:59.336Z,0.60
2024-03-16T08:29:01.539Z,0.60
2024-03-16T08:33:03.397Z,0.60
2024-03-16T08:37:05.398Z,0.55
2024-03-16T08:41:07.420Z,0.60
2024-03-16T08:45:09.308Z,0.50
2024-03-16T08:49:11.209Z,0.50
2024-03-16T08:53:12.982Z,0.60
2024-03-16T08:57:14.642Z,0.50
2024-03-16T09:01:18.058Z,0.52
2024-03-16T09:05:20.186Z,0.60
2024-03-16T09:09:22.875Z,0.50
2024-03-16T09:13:25.427Z,0.60
2024-03-16T09:17:27.411Z,0.80
2024-03-16T09:21:30.007Z,0.80
2024-03-16T09:25:31.792Z,0.90
2024-03-16T09:29:33.689Z,0.70
2024-03-16T09:33:35.473Z,0.70
2024-03-16T09:37:40.413Z,0.60
2024-03-16T09:41:42.166Z,0.80
